CDT,Max TemperatureF,Mean TemperatureF,Min TemperatureF,Max Dew PointF,MeanDew PointF,Min DewpointF,Max Humidity, Mean Humidity, Min Humidity, Max Sea Level PressureIn, Mean Sea Level PressureIn, Min Sea Level PressureIn, Max VisibilityMiles, Mean VisibilityMiles, Min VisibilityMiles, Max Wind SpeedMPH, Mean Wind SpeedMPH, Max Gust SpeedMPH,PrecipitationIn, CloudCover, Events, WindDirDegrees
2013-8-1,90,78,65,67,65,62,93,67,41,30.10,30.05,29.97,10,10,10,8,3,10,0.00,1,,211
2013-8-2,85,78,71,75,71,65,94,82,69,29.96,29.92,29.87,10,9,5,17,6,21,0.05,5,Rain,183
2013-8-3,87,79,71,72,71,68,93,77,61,30.12,30.03,29.92,10,8,2,12,5,16,T,6,Rain,51
2013-8-4,76,73,69,70,67,61,93,79,64,30.17,30.10,30.05,10,10,10,12,7,30,T,7,,118
2013-8-5,87,79,71,75,72,69,94,80,65,30.06,29.95,29.84,10,9,6,14,5,16,T,7,Rain,166
2013-8-6,90,81,72,75,73,70,100,80,59,29.91,29.86,29.81,10,8,1,15,7,20,0.19,4,Rain-Thunderstorm,185
2013-8-7,87,80,72,75,72,70,100,83,65,29.94,29.89,29.78,10,7,0,28,7,38,2.21,4,Fog-Rain-Thunderstorm,238
2013-8-8,80,74,68,71,68,64,93,82,71,29.99,29.95,29.93,10,10,10,16,5,21,0.00,3,,35
2013-8-9,76,72,67,72,69,66,100,91,82,30.10,30.03,29.98,10,9,5,9,3,12,0.07,5,Rain,11
2013-8-10,85,76,66,66,63,59,93,68,43,30.19,30.13,30.09,10,8,2,14,6,16,0.00,0,,48
2013-8-11,87,75,62,71,64,57,87,69,51,30.14,30.10,30.03,10,10,10,10,5,16,0.00,0,,135
2013-8-12,84,77,70,72,70,66,93,76,58,30.07,30.01,29.95,10,6,1,17,3,23,0.38,4,Rain-Thunderstorm,271
2013-8-13,81,74,66,67,64,60,100,77,54,30.13,30.06,30.01,10,8,1,14,6,17,0.00,1,,21
2013-8-14,77,68,59,60,56,51,90,67,43,30.20,30.16,30.12,10,10,10,13,5,17,0.00,1,,84
2013-8-15,76,67,58,59,55,54,87,67,46,30.16,30.12,30.06,10,10,10,10,5,15,0.00,2,,134
2013-8-16,77,68,58,58,56,52,93,67,40,30.17,30.14,30.10,10,10,10,12,3,18,0.00,1,,79
2013-8-17,80,68,56,59,57,54,93,69,45,30.21,30.16,30.12,10,10,6,15,4,18,0.00,1,,83
2013-8-18,83,71,59,65,61,57,90,71,51,30.18,30.13,30.09,10,10,9,12,3,15,0.00,0,,142
2013-8-19,85,73,60,66,63,59,97,73,48,30.13,30.08,30.02,10,9,4,10,4,15,0.00,0,,176
2013-8-20,88,77,66,68,65,63,93,68,43,30.09,30.05,30.02,10,10,10,12,6,16,0.00,0,,185
2013-8-21,89,78,67,70,67,63,90,70,50,30.11,30.06,30.02,10,10,10,12,7,16,0.00,0,,198
2013-8-22,90,80,70,71,69,67,90,70,50,30.11,30.06,30.03,10,10,7,10,5,13,0.00,0,,206
2013-8-23,92,81,69,71,69,66,93,70,47,30.10,30.06,30.02,10,9,5,10,3,16,0.00,1,,160
2013-8-24,92,81,70,74,69,65,100,72,44,30.17,30.13,30.07,10,8,3,15,8,18,0.00,0,,151
2013-8-25,93,80,66,72,68,64,93,69,44,30.24,30.18,30.14,10,10,5,13,6,16,0.00,0,,167
2013-8-26,93,83,73,73,71,68,87,68,49,30.19,30.13,30.06,10,10,8,13,8,18,0.00,0,,210
2013-8-27,94,84,73,71,67,61,87,60,33,30.09,30.04,30.00,10,10,8,17,9,22,0.00,0,,220
2013-8-28,94,83,72,71,69,66,84,64,44,30.06,30.02,30.00,10,10,10,13,7,16,0.00,1,,227
2013-8-29,95,84,72,73,72,69,87,67,46,30.06,30.01,29.96,10,10,10,12,5,16,0.00,0,,207
2013-8-30,98,88,77,73,71,68,82,60,38,29.97,29.91,29.83,10,10,10,16,9,21,0.00,1,,214
2013-8-31,98,88,77,76,73,70,91,70,48,29.85,29.81,29.76,10,10,10,16,7,21,0.00,1,,243